createdAt,value
2022-11-04T00:02:09.321Z,16.05
2022-11-04T00:04:36.350Z,15.48
2022-11-04T00:07:23.051Z,15.60
2022-11-04T00:09:49.829Z,16.17
2022-11-04T00:12:25.578Z,15.60
2022-11-04T00:14:52.473Z,15.93
2022-11-04T00:17:19.606Z,16.10
2022-11-04T00:20:10.157Z,15.32
2022-11-04T00:22:56.671Z,14.37
2022-11-04T00:25:46.744Z,15.23
2022-11-04T00:28:37.629Z,15.60
2022-11-04T00:31:25.801Z,15.43
2022-11-04T00:33:54.657Z,15.68
2022-11-04T00:36:23.161Z,15.73
2022-11-04T00:38:50.103Z,15.68
2022-11-04T00:41:26.468Z,16.13
2022-11-04T00:43:55.546Z,15.80
2022-11-04T00:46:22.512Z,16.55
2022-11-04T00:48:49.504Z,16.25
2022-11-04T00:51:16.398Z,16.38
2022-11-04T00:53:43.211Z,16.30
2022-11-04T00:56:10.128Z,16.83
2022-11-04T00:58:37.161Z,17.23
2022-11-04T01:01:18.100Z,17.25
2022-11-04T01:06:16.247Z,17.92
2022-11-04T01:08:43.148Z,17.70
2022-11-04T01:11:10.955Z,17.73
2022-11-04T01:13:38.985Z,19.40
2022-11-04T01:16:11.115Z,19.13
2022-11-04T01:18:38.259Z,18.65
2022-11-04T01:21:07.466Z,18.30
2022-11-04T01:23:35.225Z,17.52
2022-11-04T01:26:05.266Z,17.88
2022-11-04T01:28:32.266Z,17.73
2022-11-04T01:30:59.026Z,17.77
2022-11-04T01:33:25.828Z,18.08
2022-11-04T01:35:52.587Z,17.23
2022-11-04T01:38:19.404Z,17.15
2022-11-04T01:40:46.136Z,16.92
2022-11-04T01:43:21.386Z,16.52
2022-11-04T01:45:56.691Z,16.63
2022-11-04T01:48:32.152Z,17.30
2022-11-04T01:51:00.126Z,18.15
2022-11-04T01:53:34.833Z,18.33
2022-11-04T01:56:11.937Z,18.05
2022-11-04T01:58:51.174Z,18.33
2022-11-04T02:01:18.759Z,18.30
2022-11-04T02:04:18.453Z,17.58
2022-11-04T02:06:49.839Z,18.00
2022-11-04T02:09:18.476Z,18.98
2022-11-04T02:12:03.728Z,17.40
2022-11-04T02:14:31.398Z,17.70
2022-11-04T02:17:16.274Z,17.50
2022-11-04T02:19:48.733Z,17.70
2022-11-04T02:22:21.364Z,17.73
2022-11-04T02:24:57.165Z,17.70
2022-11-04T02:27:38.910Z,17.85
2022-11-04T02:30:21.116Z,18.42
2022-11-04T02:32:50.535Z,18.08
2022-11-04T02:35:32.119Z,18.05
2022-11-04T02:38:20.040Z,18.33
2022-11-04T02:41:00.524Z,17.60
2022-11-04T02:43:42.572Z,18.25
2022-11-04T02:46:33.765Z,18.75
2022-11-04T02:51:43.580Z,17.07
2022-11-04T02:54:21.663Z,18.23
2022-11-04T02:56:51.595Z,18.00
2022-11-04T02:59:27.041Z,18.02
2022-11-04T03:01:57.138Z,18.40
2022-11-04T03:04:32.709Z,16.77
2022-11-04T03:07:02.110Z,19.38
2022-11-04T03:09:31.088Z,18.83
2022-11-04T03:12:06.540Z,18.77
2022-11-04T03:14:42.465Z,17.95
2022-11-04T03:17:28.103Z,18.67
2022-11-04T03:19:59.020Z,18.85
2022-11-04T03:22:29.862Z,19.90
2022-11-04T03:24:57.133Z,20.42
2022-11-04T03:27:51.252Z,19.50
2022-11-04T03:30:23.383Z,20.13
2022-11-04T03:32:58.572Z,20.13
2022-11-04T03:35:27.743Z,20.60
2022-11-04T03:37:55.018Z,22.00
2022-11-04T03:40:22.637Z,21.27
2022-11-04T03:43:07.891Z,20.27
2022-11-04T03:45:35.332Z,20.88
2022-11-04T03:48:02.453Z,20.48
2022-11-04T03:50:35.772Z,21.10
2022-11-04T03:53:02.584Z,21.15
2022-11-04T03:56:00.194Z,21.45
2022-11-04T03:58:48.615Z,21.17
2022-11-04T04:01:42.400Z,21.15
2022-11-04T04:04:28.168Z,19.73
2022-11-04T04:07:01.778Z,20.70
2022-11-04T04:09:34.823Z,20.90
2022-11-04T04:12:11.471Z,21.48
2022-11-04T04:14:46.746Z,21.10
2022-11-04T04:17:21.888Z,20.67
2022-11-04T04:19:56.270Z,20.85
2022-11-04T04:22:27.525Z,20.75
2022-11-04T04:25:15.719Z,21.27
2022-11-04T04:27:44.215Z,20.25
2022-11-04T04:30:14.296Z,20.98
2022-11-04T04:32:45.226Z,18.83
2022-11-04T04:35:30.795Z,19.77
2022-11-04T04:38:21.504Z,20.30
2022-11-04T04:41:18.424Z,19.45
2022-11-04T04:44:04.093Z,21.05
2022-11-04T04:46:32.883Z,20.88
2022-11-04T04:49:10.564Z,20.77
2022-11-04T04:51:47.633Z,19.88
2022-11-04T04:54:15.253Z,20.63
2022-11-04T04:56:42.103Z,22.02
2022-11-04T04:59:09.658Z,21.45
2022-11-04T05:01:36.777Z,21.17
2022-11-04T05:04:03.989Z,20.05
2022-11-04T05:06:33.076Z,20.13
2022-11-04T05:08:59.982Z,19.77
2022-11-04T05:11:27.398Z,18.77
2022-11-04T05:13:54.786Z,19.85
2022-11-04T05:16:22.034Z,20.42
2022-11-04T05:18:48.776Z,20.30
2022-11-04T05:21:16.595Z,21.33
2022-11-04T05:23:43.573Z,20.52
2022-11-04T05:26:10.417Z,20.17
2022-11-04T05:28:37.216Z,20.00
2022-11-04T05:31:05.843Z,19.73
2022-11-04T05:33:33.180Z,20.33
2022-11-04T05:36:07.617Z,21.02
2022-11-04T05:38:34.375Z,20.27
2022-11-04T05:41:02.412Z,20.45
2022-11-04T05:43:29.471Z,20.98
2022-11-04T05:45:58.710Z,19.98
2022-11-04T05:48:25.824Z,20.17
2022-11-04T05:50:52.643Z,20.10
2022-11-04T05:53:20.182Z,20.25
2022-11-04T05:55:47.271Z,20.10
2022-11-04T05:58:14.002Z,20.17
2022-11-04T06:00:40.909Z,19.85
2022-11-04T06:03:10.737Z,19.88
2022-11-04T06:05:40.492Z,19.45
2022-11-04T06:08:07.511Z,20.38
2022-11-04T06:10:34.784Z,20.20
2022-11-04T06:13:01.606Z,18.98
2022-11-04T06:15:28.375Z,19.65
2022-11-04T06:17:55.118Z,20.17
2022-11-04T06:20:22.011Z,19.75
2022-11-04T06:22:48.753Z,20.33
2022-11-04T06:25:15.602Z,20.50
2022-11-04T06:27:42.382Z,20.40
2022-11-04T06:30:09.873Z,20.65
2022-11-04T06:32:36.616Z,20.52
2022-11-04T06:35:03.371Z,20.35
2022-11-04T06:37:30.088Z,20.70
2022-11-04T06:39:56.839Z,20.80
2022-11-04T06:42:25.938Z,20.65
2022-11-04T06:44:52.895Z,20.08
2022-11-04T06:47:24.464Z,20.80
2022-11-04T06:49:51.654Z,20.25
2022-11-04T06:52:18.425Z,20.00
2022-11-04T06:54:45.169Z,19.58
2022-11-04T06:57:12.617Z,19.60
2022-11-04T06:59:39.790Z,20.42
2022-11-04T07:02:07.214Z,19.00
2022-11-04T07:04:34.100Z,19.60
2022-11-04T07:07:00.822Z,19.38
2022-11-04T07:09:27.568Z,19.75
2022-11-04T07:11:54.355Z,18.90
2022-11-04T07:14:21.115Z,18.75
2022-11-04T07:16:51.429Z,19.10
2022-11-04T07:19:18.363Z,19.63
2022-11-04T07:21:45.148Z,19.27
2022-11-04T07:24:11.938Z,19.00
2022-11-04T07:26:38.742Z,19.02
2022-11-04T07:29:06.840Z,19.48
2022-11-04T07:31:34.004Z,19.67
2022-11-04T07:34:00.842Z,18.85
2022-11-04T07:36:27.586Z,19.48
2022-11-04T07:38:54.580Z,19.77
2022-11-04T07:41:22.167Z,20.02
2022-11-04T07:43:52.955Z,19.80
2022-11-04T07:46:20.496Z,20.42
2022-11-04T07:48:47.566Z,20.38
2022-11-04T07:51:17.361Z,20.58
2022-11-04T07:53:44.527Z,20.48
2022-11-04T07:56:12.777Z,20.40
2022-11-04T07:58:40.684Z,20.58
2022-11-04T08:01:11.912Z,20.63
2022-11-04T08:03:38.886Z,20.38
2022-11-04T08:06:07.823Z,20.50
2022-11-04T08:08:35.216Z,21.65
2022-11-04T08:11:05.675Z,20.98
2022-11-04T08:13:35.411Z,19.60
2022-11-04T08:16:10.630Z,20.88
2022-11-04T08:18:37.427Z,20.70
2022-11-04T08:21:04.945Z,21.73
2022-11-04T08:23:32.789Z,20.52
2022-11-04T08:25:59.736Z,21.23
2022-11-04T08:28:27.256Z,20.45
2022-11-04T08:31:05.837Z,21.20
2022-11-04T08:33:33.871Z,20.95
2022-11-04T08:36:22.288Z,21.15
2022-11-04T08:38:49.327Z,21.98
2022-11-04T08:41:19.899Z,21.50
2022-11-04T08:43:47.673Z,22.02
2022-11-04T08:46:14.917Z,21.77
2022-11-04T08:48:42.888Z,22.40
2022-11-04T08:51:17.107Z,22.02
2022-11-04T08:53:44.224Z,21.35
2022-11-04T08:56:17.742Z,21.58
2022-11-04T08:58:44.684Z,21.33
2022-11-04T09:01:12.763Z,21.08
2022-11-04T09:03:41.554Z,21.58
2022-11-04T09:06:11.255Z,22.30
2022-11-04T09:08:39.437Z,21.65
2022-11-04T09:11:08.528Z,21.55
2022-11-04T09:13:39.622Z,21.73
2022-11-04T09:16:08.097Z,20.63
2022-11-04T09:18:34.843Z,20.60
2022-11-04T09:21:02.829Z,20.20
2022-11-04T09:23:29.561Z,20.50
2022-11-04T09:25:58.595Z,20.23
2022-11-04T09:28:26.115Z,20.40
2022-11-04T09:30:52.843Z,20.70
2022-11-04T09:33:19.653Z,20.52
2022-11-04T09:35:56.606Z,19.88
2022-11-04T09:38:24.816Z,19.88
2022-11-04T09:40:52.067Z,20.10
2022-11-04T09:43:44.826Z,19.85
2022-11-04T09:46:14.038Z,19.63
2022-11-04T09:48:56.986Z,19.20
2022-11-04T09:51:52.481Z,19.73
2022-11-04T09:54:22.948Z,20.00
2022-11-04T09:56:53.063Z,20.35
2022-11-04T09:59:33.015Z,19.83
2022-11-04T10:02:08.162Z,19.92
2022-11-04T10:04:52.280Z,20.10
2022-11-04T10:07:48.717Z,19.65
2022-11-04T10:10:30.238Z,19.20
2022-11-04T10:13:16.087Z,19.42
2022-11-04T10:16:04.275Z,18.63
2022-11-04T10:19:01.767Z,19.13
2022-11-04T10:22:13.602Z,18.85
2022-11-04T10:24:56.326Z,19.10
2022-11-04T10:27:27.470Z,19.27
2022-11-04T10:30:21.519Z,19.65
2022-11-04T10:32:51.595Z,19.55
2022-11-04T10:35:41.007Z,18.77
2022-11-04T10:38:27.741Z,20.15
2022-11-04T10:40:56.181Z,19.50
2022-11-04T10:43:37.635Z,19.10
2022-11-04T10:46:38.876Z,18.77
2022-11-04T10:49:28.632Z,19.50
2022-11-04T10:51:57.062Z,18.58
2022-11-04T10:54:26.890Z,19.55
2022-11-04T10:56:56.820Z,19.65
2022-11-04T10:59:30.379Z,19.60
2022-11-04T11:02:00.077Z,18.63
2022-11-04T11:04:36.351Z,19.83
2022-11-04T11:07:08.560Z,19.63
2022-11-04T11:09:43.067Z,19.30
2022-11-04T11:12:36.613Z,18.50
2022-11-04T11:14:59.627Z,18.40
2022-11-04T11:17:37.956Z,18.27
2022-11-04T11:20:14.944Z,18.55
2022-11-04T11:22:46.528Z,18.48
2022-11-04T11:25:22.368Z,18.15
2022-11-04T11:27:58.152Z,17.63
2022-11-04T11:30:35.161Z,18.20
2022-11-04T11:33:05.052Z,17.73
2022-11-04T11:35:42.319Z,18.73
2022-11-04T11:38:23.348Z,18.52
2022-11-04T11:43:46.449Z,17.88
2022-11-04T11:46:13.640Z,18.60
2022-11-04T11:48:40.766Z,19.70
2022-11-04T11:51:07.630Z,18.90
2022-11-04T11:53:38.378Z,18.77
2022-11-04T11:56:59.101Z,18.45
2022-11-04T12:02:50.576Z,18.50
2022-11-04T12:11:39.676Z,17.83
2022-11-04T12:14:16.161Z,18.75
2022-11-04T12:17:04.916Z,18.40
2022-11-04T12:19:55.715Z,18.65
2022-11-04T12:22:43.722Z,19.33
2022-11-04T12:25:24.485Z,19.50
2022-11-04T12:27:59.197Z,18.67
2022-11-04T12:30:32.551Z,18.00
2022-11-04T12:33:27.878Z,18.00
2022-11-04T12:36:03.108Z,18.05
2022-11-04T12:38:41.731Z,18.05
2022-11-04T12:41:59.383Z,18.60
2022-11-04T12:44:47.667Z,22.17
2022-11-04T12:47:17.121Z,21.83
2022-11-04T12:50:21.221Z,21.50
2022-11-04T12:53:12.438Z,21.58
2022-11-04T12:56:05.954Z,21.98
2022-11-04T12:59:06.932Z,20.75
2022-11-04T13:01:41.597Z,21.85
2022-11-04T13:04:17.460Z,20.75
2022-11-04T13:06:58.366Z,20.40
2022-11-04T13:10:00.275Z,21.30
2022-11-04T13:12:42.682Z,21.02
2022-11-04T13:15:20.976Z,20.50
2022-11-04T13:17:58.767Z,20.10
2022-11-04T13:20:27.872Z,20.00
2022-11-04T13:23:03.286Z,20.00
2022-11-04T13:25:46.319Z,21.27
2022-11-04T13:28:15.607Z,21.13
2022-11-04T13:31:12.271Z,20.70
2022-11-04T13:33:50.777Z,19.88
2022-11-04T13:37:11.486Z,20.15
2022-11-04T13:39:57.733Z,19.95
2022-11-04T13:42:35.387Z,19.33
2022-11-04T13:45:20.640Z,19.27
2022-11-04T13:47:50.565Z,19.88
2022-11-04T13:50:34.455Z,19.95
2022-11-04T13:53:03.281Z,18.73
2022-11-04T13:55:30.272Z,20.20
2022-11-04T13:58:05.437Z,19.33
2022-11-04T14:00:33.695Z,20.08
2022-11-04T14:03:21.187Z,18.33
2022-11-04T14:06:00.163Z,17.77
2022-11-04T14:08:27.078Z,16.77
2022-11-04T14:10:53.767Z,18.20
2022-11-04T14:13:37.667Z,19.20
2022-11-04T14:16:10.468Z,18.27
2022-11-04T14:18:42.816Z,18.25
2022-11-04T14:21:14.758Z,16.65
2022-11-04T14:23:53.938Z,17.00
2022-11-04T14:26:42.988Z,18.05
2022-11-04T14:29:18.086Z,18.88
2022-11-04T14:31:50.329Z,18.02
2022-11-04T14:34:36.627Z,16.50
2022-11-04T14:37:15.621Z,17.67
2022-11-04T14:39:43.212Z,17.42
2022-11-04T14:42:13.663Z,17.88
2022-11-04T14:44:49.532Z,16.23
2022-11-04T14:47:25.516Z,16.95
2022-11-04T14:50:02.098Z,17.08
2022-11-04T14:52:38.049Z,17.30
2022-11-04T14:55:13.965Z,17.02
2022-11-04T14:57:46.245Z,17.30
2022-11-04T15:00:25.364Z,17.25
2022-11-04T15:06:04.898Z,18.23
2022-11-04T15:08:42.538Z,17.42
2022-11-04T15:11:43.895Z,17.63
2022-11-04T15:14:26.194Z,17.08
2022-11-04T15:16:57.849Z,16.80
2022-11-04T15:19:32.445Z,17.20
2022-11-04T15:22:02.373Z,17.20
2022-11-04T15:24:29.771Z,16.70
2022-11-04T15:27:03.071Z,14.70
2022-11-04T15:29:30.207Z,16.45
2022-11-04T15:32:00.239Z,15.30
2022-11-04T15:34:29.709Z,15.70
2022-11-04T15:37:00.444Z,15.90
2022-11-04T15:39:31.657Z,16.10
2022-11-04T15:42:22.166Z,16.15
2022-11-04T15:44:54.175Z,16.15
2022-11-04T15:47:29.071Z,15.43
2022-11-04T15:50:15.647Z,16.92
2022-11-04T15:52:50.662Z,15.65
2022-11-04T15:55:27.681Z,15.80
2022-11-04T15:57:55.745Z,16.17
2022-11-04T16:00:24.970Z,16.60
2022-11-04T16:02:58.249Z,15.73
2022-11-04T16:05:38.210Z,16.50
2022-11-04T16:08:27.791Z,16.00
2022-11-04T16:11:15.111Z,16.10
2022-11-04T16:13:43.417Z,15.90
2022-11-04T16:16:27.911Z,14.95
2022-11-04T16:18:57.486Z,15.73
2022-11-04T16:21:35.262Z,15.93
2022-11-04T16:24:15.835Z,14.45
2022-11-04T16:26:45.359Z,15.40
2022-11-04T16:29:25.633Z,14.75
2022-11-04T16:32:39.833Z,14.97
2022-11-04T16:35:24.005Z,15.15
2022-11-04T16:37:52.456Z,15.85
2022-11-04T16:40:21.735Z,15.73
2022-11-04T16:42:50.456Z,16.55
2022-11-04T16:45:22.402Z,16.13
2022-11-04T16:47:49.561Z,16.38
2022-11-04T16:50:17.494Z,16.05
2022-11-04T16:52:44.801Z,15.93
2022-11-04T16:55:13.465Z,16.05
2022-11-04T16:57:40.516Z,17.13
2022-11-04T17:00:08.371Z,16.17
2022-11-04T17:02:41.226Z,17.05
2022-11-04T17:05:09.020Z,17.15
2022-11-04T17:07:52.785Z,18.10
2022-11-04T17:10:25.825Z,18.10
2022-11-04T17:12:52.586Z,17.83
2022-11-04T17:15:19.464Z,18.42
2022-11-04T17:17:46.335Z,17.63
2022-11-04T17:20:20.520Z,16.38
2022-11-04T17:22:48.929Z,17.02
2022-11-04T17:25:27.797Z,17.75
2022-11-04T17:27:54.950Z,17.42
2022-11-04T17:30:24.598Z,18.15
2022-11-04T17:32:51.439Z,17.85
2022-11-04T17:35:18.788Z,17.45
2022-11-04T17:37:45.625Z,17.60
2022-11-04T17:40:16.945Z,17.50
2022-11-04T17:43:05.637Z,17.13
2022-11-04T17:45:37.034Z,18.30
2022-11-04T17:48:06.998Z,18.50
2022-11-04T17:50:34.010Z,18.70
2022-11-04T17:53:00.956Z,17.98
2022-11-04T17:55:28.036Z,22.35
2022-11-04T17:57:55.442Z,21.20
2022-11-04T18:00:26.051Z,20.20
2022-11-04T18:02:53.099Z,19.05
2022-11-04T18:05:20.432Z,18.80
2022-11-04T18:07:47.189Z,18.25
2022-11-04T18:10:14.085Z,19.10
2022-11-04T18:12:41.645Z,19.67
2022-11-04T18:15:11.656Z,18.65
2022-11-04T18:17:40.423Z,18.00
2022-11-04T18:20:13.924Z,18.35
2022-11-04T18:22:41.635Z,18.10
2022-11-04T18:25:09.663Z,18.25
2022-11-04T18:27:37.240Z,18.42
2022-11-04T18:30:05.197Z,18.13
2022-11-04T18:32:32.283Z,18.00
2022-11-04T18:34:59.398Z,19.00
2022-11-04T18:37:26.426Z,18.48
2022-11-04T18:39:53.226Z,19.45
2022-11-04T18:42:19.996Z,19.13
2022-11-04T18:44:46.780Z,18.58
2022-11-04T18:47:14.277Z,18.55
2022-11-04T18:49:41.020Z,18.90
2022-11-04T18:52:07.805Z,19.25
2022-11-04T18:54:34.628Z,19.60
2022-11-04T18:57:01.454Z,19.95
2022-11-04T18:59:28.233Z,19.25
2022-11-04T19:01:55.133Z,19.08
2022-11-04T19:04:22.241Z,18.90
2022-11-04T19:06:49.226Z,19.83
2022-11-04T19:09:46.001Z,19.10
2022-11-04T19:12:22.856Z,18.95
2022-11-04T19:14:49.680Z,18.80
2022-11-04T19:17:16.378Z,18.55
2022-11-04T19:19:43.309Z,19.23
2022-11-04T19:22:11.140Z,19.10
2022-11-04T19:24:39.055Z,19.42
2022-11-04T19:27:06.127Z,19.65
2022-11-04T19:29:33.099Z,19.85
2022-11-04T19:32:00.407Z,18.40
2022-11-04T19:34:27.243Z,20.08
2022-11-04T19:36:54.272Z,19.73
2022-11-04T19:39:21.049Z,18.55
2022-11-04T19:42:06.207Z,19.95
2022-11-04T19:44:33.106Z,20.38
2022-11-04T19:46:59.960Z,19.90
2022-11-04T19:49:31.226Z,19.45
2022-11-04T19:52:00.024Z,19.73
2022-11-04T19:54:28.410Z,19.42
2022-11-04T19:56:56.234Z,19.05
2022-11-04T19:59:22.961Z,19.00
2022-11-04T20:01:50.641Z,18.92
2022-11-04T20:04:17.583Z,19.42
2022-11-04T20:06:44.341Z,19.40
2022-11-04T20:09:11.210Z,19.80
2022-11-04T20:11:59.169Z,20.35
2022-11-04T20:14:27.731Z,20.48
2022-11-04T20:16:54.532Z,20.35
2022-11-04T20:19:23.040Z,20.73
2022-11-04T20:21:50.799Z,20.90
2022-11-04T20:24:17.985Z,20.92
2022-11-04T20:26:46.689Z,20.75
2022-11-04T20:29:16.139Z,20.30
2022-11-04T20:31:43.525Z,20.50
2022-11-04T20:34:12.482Z,20.23
2022-11-04T20:36:39.793Z,21.00
2022-11-04T20:39:10.155Z,20.08
2022-11-04T20:41:36.983Z,20.02
2022-11-04T20:44:04.238Z,20.98
2022-11-04T20:46:34.643Z,21.83
2022-11-04T20:49:03.085Z,19.30
2022-11-04T20:51:32.474Z,19.98
2022-11-04T20:54:01.422Z,19.85
2022-11-04T20:56:31.384Z,19.13
2022-11-04T20:59:00.035Z,18.98
2022-11-04T21:01:35.510Z,19.38
2022-11-04T21:04:15.145Z,19.20
2022-11-04T21:06:42.460Z,20.00
2022-11-04T21:09:12.030Z,19.92
2022-11-04T21:11:39.749Z,20.35
2022-11-04T21:14:13.348Z,20.58
2022-11-04T21:16:40.324Z,19.27
2022-11-04T21:19:07.899Z,21.00
2022-11-04T21:21:34.684Z,20.52
2022-11-04T21:24:05.194Z,19.95
2022-11-04T21:26:35.572Z,19.75
2022-11-04T21:29:06.293Z,19.80
2022-11-04T21:31:34.880Z,20.20
2022-11-04T21:34:02.124Z,20.80
2022-11-04T21:36:29.011Z,19.58
2022-11-04T21:38:56.540Z,19.48
2022-11-04T21:41:27.106Z,19.45
2022-11-04T21:43:58.936Z,19.10
2022-11-04T21:46:26.618Z,18.92
2022-11-04T21:48:54.896Z,19.60
2022-11-04T21:51:24.579Z,20.00
2022-11-04T21:53:51.654Z,19.13
2022-11-04T21:56:21.281Z,19.10
2022-11-04T21:58:48.038Z,19.27
2022-11-04T22:01:18.861Z,19.63
2022-11-04T22:03:54.012Z,19.75
2022-11-04T22:06:21.530Z,18.90
2022-11-04T22:08:53.918Z,20.02
2022-11-04T22:11:28.604Z,19.70
2022-11-04T22:14:07.490Z,18.98
2022-11-04T22:16:37.854Z,18.42
2022-11-04T22:19:06.670Z,19.17
2022-11-04T22:21:33.828Z,19.40
2022-11-04T22:24:00.932Z,19.00
2022-11-04T22:26:30.694Z,19.00
2022-11-04T22:28:57.941Z,19.20
2022-11-04T22:31:27.536Z,19.30
2022-11-04T22:33:55.999Z,18.70
2022-11-04T22:36:23.497Z,19.35
2022-11-04T22:38:50.595Z,18.83
2022-11-04T22:41:27.230Z,20.40
2022-11-04T22:43:55.189Z,19.38
2022-11-04T22:46:26.150Z,19.10
2022-11-04T22:48:52.981Z,19.55
2022-11-04T22:51:19.835Z,19.02
2022-11-04T22:53:51.280Z,18.92
2022-11-04T22:56:21.497Z,18.65
2022-11-04T22:58:48.493Z,18.77
2022-11-04T23:01:16.454Z,19.23
2022-11-04T23:03:43.636Z,19.80
2022-11-04T23:06:10.735Z,19.30
2022-11-04T23:08:48.425Z,19.30
2022-11-04T23:11:42.244Z,18.85
2022-11-04T23:14:32.681Z,19.50
2022-11-04T23:17:35.008Z,19.30
2022-11-04T23:20:21.250Z,19.58
2022-11-04T23:23:06.358Z,18.70
2022-11-04T23:25:33.533Z,18.60
2022-11-04T23:28:19.025Z,18.73
2022-11-04T23:30:47.211Z,18.17
2022-11-04T23:33:15.520Z,19.65
2022-11-04T23:36:06.641Z,18.08
2022-11-04T23:38:35.898Z,18.75
2022-11-04T23:41:24.809Z,18.30
2022-11-04T23:43:51.717Z,18.80
2022-11-04T23:46:42.704Z,18.27
2022-11-04T23:49:32.370Z,18.65
2022-11-04T23:52:21.218Z,18.95
2022-11-04T23:55:06.308Z,19.13
2022-11-04T23:57:51.604Z,18.88
